Time;durP1;ratioP1;P1;durP2;ratioP2;P2;SDS_P1;SDS_P2;PMS_P1;PMS_P2;Temp;Humidity;BMP_temperature;BMP_pressure;BME280_temperature;BME280_humidity;BME280_pressure;Samples;Min_cycle;Max_cycle;Signal;HPM_P1;HPM_P2
2022/06/07 00:00:15;;;;;;;10.55;6.30;;;;;;;;;;5011816;28;20049;-51
2022/06/07 00:02:41;;;;;;;13.32;6.95;;;;;;;;;;5011502;28;20087;-52
2022/06/07 00:05:07;;;;;;;14.00;6.22;;;;;;;;;;5011827;28;20037;-55
2022/06/07 00:07:34;;;;;;;11.80;6.40;;;;;;;;;;5012135;28;20037;-52
2022/06/07 00:10:00;;;;;;;15.02;6.72;;;;;;;;;;5011383;28;20034;-55
2022/06/07 00:12:26;;;;;;;12.30;6.38;;;;;;;;;;5011216;28;20137;-53
2022/06/07 00:14:52;;;;;;;14.35;6.85;;;;;;;;;;5011582;28;20029;-51
2022/06/07 00:17:18;;;;;;;10.40;6.15;;;;;;;;;;5011837;28;20026;-52
2022/06/07 00:19:44;;;;;;;7.95;6.05;;;;;;;;;;5011418;28;20038;-52
2022/06/07 00:22:11;;;;;;;12.07;5.78;;;;;;;;;;5012922;28;20355;-51
2022/06/07 00:24:37;;;;;;;14.95;7.18;;;;;;;;;;5017851;28;20026;-51
2022/06/07 00:27:03;;;;;;;9.88;6.10;;;;;;;;;;5018473;28;20030;-54
2022/06/07 00:29:30;;;;;;;14.05;6.03;;;;;;;;;;5018010;28;20034;-52
2022/06/07 00:31:56;;;;;;;14.25;6.15;;;;;;;;;;5018062;28;20030;-51
2022/06/07 00:34:23;;;;;;;10.00;6.15;;;;;;;;;;5018167;28;20033;-51
2022/06/07 00:36:49;;;;;;;9.30;5.95;;;;;;;;;;5018092;28;20566;-54
2022/06/07 00:39:16;;;;;;;16.02;7.10;;;;;;;;;;5017955;28;20022;-54
2022/06/07 00:41:42;;;;;;;18.17;6.95;;;;;;;;;;5018050;28;20076;-53
2022/06/07 00:44:26;;;;;;;11.48;6.45;;;;;;;;;;5017928;28;20026;-50
2022/06/07 00:46:58;;;;;;;17.42;6.60;;;;;;;;;;5017785;28;20390;-54
2022/06/07 00:49:25;;;;;;;12.68;6.97;;;;;;;;;;5017657;28;20030;-50
2022/06/07 00:51:51;;;;;;;15.35;7.95;;;;;;;;;;5018147;28;20068;-50
2022/06/07 00:54:25;;;;;;;14.52;7.05;;;;;;;;;;5017843;28;20049;-50
2022/06/07 00:56:51;;;;;;;12.82;7.38;;;;;;;;;;5017430;28;20029;-55
2022/06/07 00:59:17;;;;;;;11.95;6.05;;;;;;;;;;5017901;28;20045;-55
2022/06/07 01:01:43;;;;;;;19.77;7.20;;;;;;;;;;5017917;28;20402;-51
2022/06/07 01:04:10;;;;;;;9.73;6.85;;;;;;;;;;5017178;28;20022;-50
2022/06/07 01:12:06;;;;;;;8.70;6.40;;;;;;;;;;5017358;28;20029;-52
2022/06/07 01:14:32;;;;;;;16.10;7.88;;;;;;;;;;5017727;28;20026;-52
2022/06/07 01:16:58;;;;;;;11.68;6.40;;;;;;;;;;5002687;28;20038;-53
2022/06/07 01:19:24;;;;;;;11.05;7.10;;;;;;;;;;5006769;28;20480;-51
2022/06/07 01:21:51;;;;;;;13.60;6.78;;;;;;;;;;5017391;28;20041;-53
2022/06/07 01:24:17;;;;;;;10.25;7.57;;;;;;;;;;5017403;28;20157;-51
2022/06/07 01:26:43;;;;;;;14.93;8.07;;;;;;;;;;5017485;28;20022;-50
2022/06/07 01:29:10;;;;;;;8.43;6.78;;;;;;;;;;5017477;28;20025;-53
2022/06/07 01:31:36;;;;;;;11.60;6.97;;;;;;;;;;5016303;28;20026;-54
2022/06/07 01:34:03;;;;;;;10.80;6.93;;;;;;;;;;5015498;28;20422;-50
2022/06/07 01:36:30;;;;;;;10.25;6.65;;;;;;;;;;5014315;28;20653;-52
2022/06/07 01:41:56;;;;;;;10.70;7.20;;;;;;;;;;5014579;28;20400;-54
2022/06/07 01:44:23;;;;;;;9.40;6.40;;;;;;;;;;5009888;28;20124;-52
2022/06/07 01:46:49;;;;;;;11.55;7.18;;;;;;;;;;5014249;28;20030;-54
2022/06/07 01:49:16;;;;;;;13.50;6.75;;;;;;;;;;5014320;28;20033;-54
2022/06/07 01:51:42;;;;;;;11.05;6.03;;;;;;;;;;5014161;28;20028;-56
2022/06/07 01:54:09;;;;;;;16.35;6.90;;;;;;;;;;5014396;28;20033;-50
2022/06/07 01:56:36;;;;;;;12.52;6.95;;;;;;;;;;5013984;28;20514;-50
2022/06/07 01:59:02;;;;;;;;;;;;;;;;;;4998445;28;20033;-51
2022/06/07 02:01:29;;;;;;;15.32;7.25;;;;;;;;;;5013894;28;20317;-53
2022/06/07 02:03:55;;;;;;;10.30;6.65;;;;;;;;;;5013316;28;20446;-50
2022/06/07 02:06:21;;;;;;;13.43;6.43;;;;;;;;;;5013674;28;20402;-51
2022/06/07 02:08:47;;;;;;;9.98;6.38;;;;;;;;;;5013908;28;20053;-50
2022/06/07 02:11:14;;;;;;;8.25;6.15;;;;;;;;;;5012250;28;20037;-51
2022/06/07 02:13:40;;;;;;;9.68;6.25;;;;;;;;;;5013131;28;20347;-53
2022/06/07 02:16:07;;;;;;;8.63;6.15;;;;;;;;;;5013439;28;20108;-55
2022/06/07 02:18:34;;;;;;;15.57;6.60;;;;;;;;;;5013587;28;20033;-50
2022/06/07 02:21:00;;;;;;;14.93;6.38;;;;;;;;;;5013861;28;20029;-50
2022/06/07 02:23:29;;;;;;;10.10;6.10;;;;;;;;;;5013283;28;20036;-50
2022/06/07 02:25:59;;;;;;;8.20;5.95;;;;;;;;;;4997139;28;20038;-52
2022/06/07 02:28:27;;;;;;;10.27;6.22;;;;;;;;;;5012729;28;20037;-51
2022/06/07 02:30:54;;;;;;;15.90;6.85;;;;;;;;;;5013546;28;20084;-50
2022/06/07 02:33:20;;;;;;;13.90;7.07;;;;;;;;;;5013186;28;20030;-50
2022/06/07 02:35:46;;;;;;;13.23;6.97;;;;;;;;;;5013347;28;20108;-50
2022/06/07 02:38:12;;;;;;;12.05;5.97;;;;;;;;;;5013327;28;20101;-50
2022/06/07 02:40:38;;;;;;;11.63;6.35;;;;;;;;;;5013293;28;20380;-50
2022/06/07 02:43:08;;;;;;;12.18;6.75;;;;;;;;;;5012331;28;20046;-50
2022/06/07 02:45:34;;;;;;;10.38;6.82;;;;;;;;;;5012143;28;20095;-50
2022/06/07 02:48:00;;;;;;;9.98;7.65;;;;;;;;;;5013219;28;20454;-50
2022/06/07 02:50:26;;;;;;;16.55;5.55;;;;;;;;;;5009811;28;20027;-51
2022/06/07 02:52:52;;;;;;;6.78;2.70;;;;;;;;;;5012760;28;20064;-50
2022/06/07 02:55:19;;;;;;;11.70;2.25;;;;;;;;;;5013008;28;20018;-51
2022/06/07 02:57:45;;;;;;;4.05;2.67;;;;;;;;;;5012929;28;20030;-56
2022/06/07 03:00:13;;;;;;;12.50;2.53;;;;;;;;;;5012750;28;20030;-49
2022/06/07 03:02:39;;;;;;;7.05;2.00;;;;;;;;;;5012717;28;20029;-53
2022/06/07 03:05:06;;;;;;;7.18;2.50;;;;;;;;;;5012563;28;20104;-53
2022/06/07 03:07:32;;;;;;;7.88;3.22;;;;;;;;;;5011065;28;20029;-55
2022/06/07 03:09:58;;;;;;;8.48;3.17;;;;;;;;;;5012473;28;20541;-51
2022/06/07 03:12:24;;;;;;;5.63;2.22;;;;;;;;;;5012747;28;20030;-50
2022/06/07 03:14:50;;;;;;;7.23;2.33;;;;;;;;;;5007252;28;20092;-55
2022/06/07 03:17:16;;;;;;;2.97;1.90;;;;;;;;;;5012850;28;20292;-51
2022/06/07 03:19:42;;;;;;;11.05;2.55;;;;;;;;;;5012466;28;20265;-50
2022/06/07 03:22:09;;;;;;;16.10;3.77;;;;;;;;;;5012238;28;20399;-53
2022/06/07 03:24:35;;;;;;;12.40;3.83;;;;;;;;;;5011456;28;20780;-51
2022/06/07 03:27:02;;;;;;;18.95;4.45;;;;;;;;;;5011826;28;20096;-54
2022/06/07 03:29:28;;;;;;;11.52;3.05;;;;;;;;;;5012893;28;20034;-53
2022/06/07 03:31:54;;;;;;;20.83;4.00;;;;;;;;;;4995996;28;20492;-54
2022/06/07 03:34:20;;;;;;;14.27;3.25;;;;;;;;;;5012167;28;20605;-51
2022/06/07 03:36:47;;;;;;;12.85;3.50;;;;;;;;;;5005546;28;20029;-54
2022/06/07 03:39:13;;;;;;;14.77;4.38;;;;;;;;;;5011883;28;20026;-52
2022/06/07 03:41:39;;;;;;;13.07;4.57;;;;;;;;;;5012362;28;20029;-51
2022/06/07 03:44:06;;;;;;;13.40;4.53;;;;;;;;;;5012063;28;20088;-54
2022/06/07 03:46:35;;;;;;;;;;;;;;;;;;5011387;28;20126;-53
2022/06/07 03:49:01;;;;;;;14.25;4.45;;;;;;;;;;5011449;28;19920;-51
2022/06/07 03:51:28;;;;;;;17.25;4.30;;;;;;;;;;5012072;28;20024;-54
2022/06/07 03:53:55;;;;;;;7.00;3.40;;;;;;;;;;5012254;28;20071;-50
2022/06/07 03:56:24;;;;;;;9.60;3.15;;;;;;;;;;4999983;28;20053;-52
2022/06/07 03:58:51;;;;;;;8.40;3.40;;;;;;;;;;5011038;28;20041;-54
2022/06/07 04:01:18;;;;;;;6.43;3.58;;;;;;;;;;5011708;28;20503;-52
2022/06/07 04:03:45;;;;;;;5.90;3.42;;;;;;;;;;5011880;28;20610;-53
2022/06/07 04:06:23;;;;;;;9.93;4.25;;;;;;;;;;5011832;28;20025;-51
2022/06/07 04:08:50;;;;;;;7.57;3.75;;;;;;;;;;5012243;28;20408;-50
2022/06/07 04:11:17;;;;;;;7.83;3.63;;;;;;;;;;5012044;28;20026;-52
2022/06/07 04:13:43;;;;;;;9.55;4.57;;;;;;;;;;5011893;28;20284;-53
2022/06/07 04:16:12;;;;;;;9.45;4.13;;;;;;;;;;5011901;28;20034;-50
2022/06/07 04:18:39;;;;;;;11.70;5.15;;;;;;;;;;5012042;28;20022;-54
2022/06/07 04:21:05;;;;;;;10.10;3.70;;;;;;;;;;5011970;28;20026;-53
2022/06/07 04:23:31;;;;;;;13.02;4.57;;;;;;;;;;5011838;28;20036;-52
2022/06/07 04:25:57;;;;;;;8.68;4.05;;;;;;;;;;5012154;28;20101;-49
2022/06/07 04:28:23;;;;;;;14.40;6.13;;;;;;;;;;5010552;28;20029;-55
2022/06/07 04:30:50;;;;;;;8.93;4.87;;;;;;;;;;5011900;28;20026;-53
2022/06/07 04:33:17;;;;;;;11.05;4.00;;;;;;;;;;5011800;28;20049;-55
2022/06/07 04:35:44;;;;;;;9.63;4.05;;;;;;;;;;5011999;28;20034;-52
2022/06/07 04:38:10;;;;;;;9.68;3.80;;;;;;;;;;5011840;28;20022;-54
2022/06/07 04:40:38;;;;;;;7.80;4.28;;;;;;;;;;5011758;28;20026;-50
2022/06/07 04:43:05;;;;;;;9.80;4.45;;;;;;;;;;5032600;23;20049;-51
2022/06/07 04:45:31;;;;;;;10.98;4.32;;;;;;;;;;5011180;28;20518;-52
2022/06/07 04:47:57;;;;;;;6.40;3.95;;;;;;;;;;5011678;28;20076;-50
2022/06/07 04:50:23;;;;;;;9.15;3.72;;;;;;;;;;4993919;28;20030;-50
2022/06/07 04:52:49;;;;;;;10.80;5.23;;;;;;;;;;5011573;28;20026;-50
2022/06/07 04:55:17;;;;;;;11.93;4.47;;;;;;;;;;5011488;28;20249;-50
2022/06/07 04:57:44;;;;;;;8.90;3.63;;;;;;;;;;5011545;28;20284;-50
2022/06/07 05:00:14;;;;;;;6.45;3.00;;;;;;;;;;4994079;28;20042;-50
2022/06/07 05:02:41;;;;;;;6.93;2.90;;;;;;;;;;4993896;28;20026;-51
2022/06/07 05:05:07;;;;;;;5.15;2.78;;;;;;;;;;5011448;28;20034;-50
2022/06/07 05:07:33;;;;;;;6.97;2.65;;;;;;;;;;5011471;28;20026;-49
2022/06/07 05:09:59;;;;;;;6.80;2.88;;;;;;;;;;5012920;28;20022;-49
2022/06/07 05:12:25;;;;;;;6.17;2.20;;;;;;;;;;5015232;28;20100;-49
2022/06/07 05:14:52;;;;;;;7.50;2.63;;;;;;;;;;5014961;28;20340;-50
2022/06/07 05:17:18;;;;;;;6.32;2.42;;;;;;;;;;5015154;28;20026;-49
2022/06/07 05:19:44;;;;;;;6.30;3.20;;;;;;;;;;5015099;28;20557;-50
2022/06/07 05:22:10;;;;;;;3.83;2.30;;;;;;;;;;5015023;28;20296;-49
2022/06/07 05:24:36;;;;;;;4.83;2.27;;;;;;;;;;5014724;28;20032;-50
2022/06/07 05:27:04;;;;;;;5.15;2.38;;;;;;;;;;5014892;28;20101;-48
2022/06/07 05:29:49;;;;;;;5.55;3.10;;;;;;;;;;5014715;28;20120;-49
2022/06/07 05:32:15;;;;;;;4.57;2.53;;;;;;;;;;4997503;28;20026;-49
2022/06/07 05:34:41;;;;;;;3.97;2.15;;;;;;;;;;5014597;28;20026;-49
2022/06/07 05:37:07;;;;;;;4.03;2.57;;;;;;;;;;5014667;28;20029;-50
2022/06/07 05:39:33;;;;;;;5.22;2.40;;;;;;;;;;5014654;28;20022;-50
2022/06/07 05:42:02;;;;;;;3.77;2.30;;;;;;;;;;5014672;28;20068;-49
2022/06/07 05:44:29;;;;;;;3.55;2.20;;;;;;;;;;5014406;28;20030;-50
2022/06/07 05:46:55;;;;;;;5.30;2.53;;;;;;;;;;5014584;28;20018;-50
2022/06/07 05:49:21;;;;;;;2.78;1.90;;;;;;;;;;5014753;28;20021;-51
2022/06/07 05:51:47;;;;;;;3.97;2.00;;;;;;;;;;5014375;28;20025;-49
2022/06/07 05:54:14;;;;;;;4.50;2.25;;;;;;;;;;5014388;28;20046;-49
2022/06/07 05:56:40;;;;;;;3.10;1.95;;;;;;;;;;5014127;28;20382;-50
2022/06/07 05:59:07;;;;;;;5.05;2.40;;;;;;;;;;5014328;28;20022;-51
2022/06/07 06:01:33;;;;;;;8.20;3.40;;;;;;;;;;5014263;28;20034;-50
2022/06/07 06:03:59;;;;;;;7.60;3.33;;;;;;;;;;5014136;28;20053;-50
2022/06/07 06:06:26;;;;;;;3.00;1.90;;;;;;;;;;5013996;28;20061;-50
2022/06/07 06:11:37;;;;;;;4.15;2.47;;;;;;;;;;5014168;28;20077;-50
2022/06/07 06:14:03;;;;;;;4.10;2.53;;;;;;;;;;5014412;28;20053;-50
2022/06/07 06:16:30;;;;;;;3.50;1.63;;;;;;;;;;5013956;28;20729;-50
2022/06/07 06:18:57;;;;;;;2.80;1.90;;;;;;;;;;5014032;28;20028;-50
2022/06/07 06:21:25;;;;;;;3.72;2.38;;;;;;;;;;5013403;28;20109;-51
2022/06/07 06:23:51;;;;;;;4.20;2.13;;;;;;;;;;5013802;28;20037;-50
2022/06/07 06:26:21;;;;;;;3.10;2.20;;;;;;;;;;4996212;28;20033;-51
2022/06/07 06:28:48;;;;;;;4.80;2.50;;;;;;;;;;5013877;28;20033;-52
2022/06/07 06:31:15;;;;;;;5.00;2.60;;;;;;;;;;5013743;28;20349;-50
2022/06/07 06:33:44;;;;;;;3.42;2.08;;;;;;;;;;5013570;28;20450;-50
2022/06/07 06:36:11;;;;;;;6.90;2.78;;;;;;;;;;5013536;28;20052;-50
2022/06/07 06:38:37;;;;;;;4.95;2.08;;;;;;;;;;5013638;28;20104;-50
2022/06/07 06:41:07;;;;;;;7.22;2.40;;;;;;;;;;4996090;28;20049;-52
2022/06/07 06:43:33;;;;;;;4.10;2.35;;;;;;;;;;5013397;28;20103;-51
2022/06/07 06:46:03;;;;;;;2.77;2.07;;;;;;;;;;5013350;28;20500;-51
2022/06/07 06:48:29;;;;;;;3.97;2.45;;;;;;;;;;5013367;28;20097;-52
2022/06/07 06:51:05;;;;;;;6.93;3.00;;;;;;;;;;5013195;28;20026;-51
2022/06/07 06:53:32;;;;;;;8.25;3.83;;;;;;;;;;5013480;28;20421;-53
2022/06/07 06:55:58;;;;;;;;;;;;;;;;;;4996247;28;20430;-50
2022/06/07 06:58:25;;;;;;;5.35;2.50;;;;;;;;;;4995581;28;19913;-50
2022/06/07 07:01:11;;;;;;;6.03;2.85;;;;;;;;;;5013275;28;20037;-52
2022/06/07 07:03:38;;;;;;;4.90;3.90;;;;;;;;;;5012970;28;20113;-54
2022/06/07 07:06:05;;;;;;;7.18;3.75;;;;;;;;;;5013118;28;20029;-49
2022/06/07 07:08:31;;;;;;;;;;;;;;;;;;5013489;28;20105;-53
2022/06/07 07:11:08;;;;;;;7.10;4.78;;;;;;;;;;5012899;28;20299;-50
2022/06/07 07:13:35;;;;;;;6.70;4.00;;;;;;;;;;5012929;28;20355;-54
2022/06/07 07:16:02;;;;;;;7.68;3.92;;;;;;;;;;5012787;28;20022;-50
2022/06/07 07:18:28;;;;;;;;;;;;;;;;;;5013319;28;20080;-49
2022/06/07 07:20:54;;;;;;;6.80;4.53;;;;;;;;;;5012838;28;19905;-52
2022/06/07 07:23:21;;;;;;;7.60;4.07;;;;;;;;;;5012692;28;20558;-50
2022/06/07 07:25:48;;;;;;;8.32;4.70;;;;;;;;;;5012651;28;20049;-50
2022/06/07 07:28:14;;;;;;;12.40;4.10;;;;;;;;;;5012717;28;20084;-50
2022/06/07 07:30:40;;;;;;;6.00;4.15;;;;;;;;;;4995135;28;20785;-50
2022/06/07 07:33:06;;;;;;;7.00;3.42;;;;;;;;;;5011841;28;20068;-51
2022/06/07 07:35:32;;;;;;;5.50;3.57;;;;;;;;;;5012475;28;20026;-51
2022/06/07 07:37:58;;;;;;;6.95;4.47;;;;;;;;;;5012470;28;20757;-51
2022/06/07 07:40:25;;;;;;;5.18;3.60;;;;;;;;;;5012434;28;20061;-50
2022/06/07 07:42:52;;;;;;;5.07;3.75;;;;;;;;;;4995243;28;20033;-50
2022/06/07 07:45:18;;;;;;;7.07;3.40;;;;;;;;;;5012365;28;20084;-50
2022/06/07 07:47:44;;;;;;;6.60;3.50;;;;;;;;;;5012457;28;20521;-52
2022/06/07 07:50:11;;;;;;;5.55;2.80;;;;;;;;;;5012316;28;20544;-59
2022/06/07 07:52:38;;;;;;;5.28;3.00;;;;;;;;;;5012261;28;20025;-59
2022/06/07 07:55:04;;;;;;;3.83;2.58;;;;;;;;;;5012225;28;20026;-59
2022/06/07 07:57:31;;;;;;;3.05;2.08;;;;;;;;;;5012175;28;20026;-61
2022/06/07 07:59:57;;;;;;;3.83;2.58;;;;;;;;;;5010890;28;20026;-59
2022/06/07 08:02:23;;;;;;;3.88;3.10;;;;;;;;;;5012089;28;20025;-59
2022/06/07 08:04:49;;;;;;;3.88;2.60;;;;;;;;;;5011901;28;20033;-54
2022/06/07 08:07:16;;;;;;;5.30;2.47;;;;;;;;;;5012130;28;20022;-52
2022/06/07 08:09:42;;;;;;;2.58;1.95;;;;;;;;;;5012059;28;20053;-53
2022/06/07 08:12:08;;;;;;;4.55;2.05;;;;;;;;;;5012048;28;20399;-53
2022/06/07 08:14:35;;;;;;;6.40;1.98;;;;;;;;;;5012022;28;20423;-53
2022/06/07 08:17:02;;;;;;;5.05;2.00;;;;;;;;;;5012034;28;20033;-55
2022/06/07 08:19:28;;;;;;;3.72;2.35;;;;;;;;;;5011947;28;20491;-53
2022/06/07 08:21:54;;;;;;;5.50;2.30;;;;;;;;;;5010702;28;20022;-53
2022/06/07 08:24:20;;;;;;;3.80;2.22;;;;;;;;;;5011933;28;20025;-55
2022/06/07 08:26:48;;;;;;;5.20;2.60;;;;;;;;;;5011761;28;20057;-53
2022/06/07 08:29:15;;;;;;;2.95;2.55;;;;;;;;;;5011961;28;20109;-53
2022/06/07 08:31:41;;;;;;;;;;;;;;;;;;5012276;28;20026;-54
2022/06/07 08:39:38;;;;;;;5.05;3.28;;;;;;;;;;5012062;28;20568;-53
2022/06/07 08:42:19;;;;;;;5.32;3.35;;;;;;;;;;5011769;28;20026;-53
2022/06/07 08:45:02;;;;;;;5.85;2.85;;;;;;;;;;5014313;28;20072;-53
2022/06/07 08:47:32;;;;;;;4.38;2.50;;;;;;;;;;5015596;28;20026;-53
2022/06/07 08:49:59;;;;;;;4.38;2.75;;;;;;;;;;5015648;28;20030;-53
2022/06/07 08:52:25;;;;;;;;;;;;;;;;;;5015981;28;20494;-53
2022/06/07 08:54:51;;;;;;;4.95;3.00;;;;;;;;;;5015276;28;20358;-55
2022/06/07 08:57:30;;;;;;;3.85;2.60;;;;;;;;;;5015473;28;20398;-53
2022/06/07 08:59:57;;;;;;;4.35;2.40;;;;;;;;;;4997835;28;20076;-56
2022/06/07 09:02:35;;;;;;;5.85;2.75;;;;;;;;;;5015310;28;20029;-53
2022/06/07 09:05:01;;;;;;;5.32;2.80;;;;;;;;;;5015314;28;20109;-53
2022/06/07 09:07:27;;;;;;;3.28;2.45;;;;;;;;;;5015273;28;20022;-53
2022/06/07 09:12:54;;;;;;;4.28;2.45;;;;;;;;;;5015444;28;20057;-55
2022/06/07 09:15:21;;;;;;;4.25;3.20;;;;;;;;;;5015410;28;20371;-53
2022/06/07 09:17:51;;;;;;;5.30;3.10;;;;;;;;;;4997518;28;20026;-53
2022/06/07 09:20:22;;;;;;;4.53;2.58;;;;;;;;;;5015409;28;20394;-53
2022/06/07 09:22:51;;;;;;;5.97;3.22;;;;;;;;;;5014900;28;20572;-56
2022/06/07 09:25:21;;;;;;;5.00;3.10;;;;;;;;;;5014967;28;20030;-53
2022/06/07 09:27:48;;;;;;;5.18;2.80;;;;;;;;;;5015004;28;20026;-53
2022/06/07 09:30:17;;;;;;;5.82;3.22;;;;;;;;;;5014867;28;20033;-56
2022/06/07 09:32:51;;;;;;;5.90;2.63;;;;;;;;;;5014737;28;20064;-53
2022/06/07 09:35:40;;;;;;;3.42;2.40;;;;;;;;;;5014694;28;20033;-52
2022/06/07 09:38:17;;;;;;;7.40;3.25;;;;;;;;;;5002166;28;20045;-53
2022/06/07 09:40:47;;;;;;;3.33;2.65;;;;;;;;;;5014656;28;20083;-53
2022/06/07 09:43:13;;;;;;;4.45;2.80;;;;;;;;;;5014488;28;20512;-53
2022/06/07 09:45:48;;;;;;;6.20;2.78;;;;;;;;;;5014484;28;20137;-55
2022/06/07 09:48:26;;;;;;;7.03;3.97;;;;;;;;;;5014614;28;20026;-53
2022/06/07 09:51:07;;;;;;;4.72;2.90;;;;;;;;;;5014429;28;20079;-53
2022/06/07 09:53:41;;;;;;;6.13;3.85;;;;;;;;;;5014338;28;20022;-54
2022/06/07 09:56:07;;;;;;;7.82;3.55;;;;;;;;;;5013357;28;20109;-53
2022/06/07 09:58:33;;;;;;;6.63;3.60;;;;;;;;;;4996810;28;20164;-53
2022/06/07 10:01:02;;;;;;;4.85;3.50;;;;;;;;;;5014344;28;20053;-55
2022/06/07 10:03:34;;;;;;;8.77;3.45;;;;;;;;;;5014232;28;20029;-53
2022/06/07 10:06:19;;;;;;;7.80;4.25;;;;;;;;;;5014102;28;20026;-54
2022/06/07 10:08:51;;;;;;;7.68;3.63;;;;;;;;;;4996492;28;20049;-54
2022/06/07 10:11:17;;;;;;;5.97;3.38;;;;;;;;;;5010228;28;20079;-55
2022/06/07 10:13:43;;;;;;;5.20;3.33;;;;;;;;;;4999565;28;20109;-53
2022/06/07 10:16:20;;;;;;;3.78;2.97;;;;;;;;;;4999924;28;20053;-53
2022/06/07 10:18:46;;;;;;;7.20;3.25;;;;;;;;;;5002367;28;20030;-53
2022/06/07 10:21:21;;;;;;;5.25;2.90;;;;;;;;;;4994673;28;20042;-54
2022/06/07 10:24:14;;;;;;;5.22;2.45;;;;;;;;;;4995342;28;20025;-56
2022/06/07 10:26:53;;;;;;;4.47;2.83;;;;;;;;;;4996072;28;20129;-54
2022/06/07 10:29:31;;;;;;;5.82;2.67;;;;;;;;;;4996697;28;20487;-53
2022/06/07 10:32:03;;;;;;;3.67;2.40;;;;;;;;;;5002207;28;20062;-54
2022/06/07 10:34:35;;;;;;;4.03;2.80;;;;;;;;;;4997409;28;20025;-53
2022/06/07 10:37:07;;;;;;;6.35;3.20;;;;;;;;;;5010112;28;20486;-53
2022/06/07 10:39:33;;;;;;;4.70;3.25;;;;;;;;;;4998644;28;20023;-55
2022/06/07 10:42:02;;;;;;;4.40;2.50;;;;;;;;;;5010156;28;20038;-55
2022/06/07 10:44:37;;;;;;;4.90;2.65;;;;;;;;;;5045844;23;20050;-58
2022/06/07 10:47:22;;;;;;;2.47;2.20;;;;;;;;;;4994523;28;20025;-59
2022/06/07 10:49:55;;;;;;;4.00;2.65;;;;;;;;;;5010653;28;20100;-60
2022/06/07 10:52:32;;;;;;;3.95;2.75;;;;;;;;;;4996267;28;20034;-60
2022/06/07 10:54:59;;;;;;;3.88;2.20;;;;;;;;;;4985085;28;20033;-60
2022/06/07 10:57:28;;;;;;;3.67;2.00;;;;;;;;;;4992325;28;20033;-59
2022/06/07 10:59:55;;;;;;;2.88;2.20;;;;;;;;;;4981328;28;20033;-60
2022/06/07 11:02:35;;;;;;;3.08;1.83;;;;;;;;;;4993330;28;20057;-60
2022/06/07 11:11:03;;;;;;;4.45;2.30;;;;;;;;;;4993079;28;20125;-58
2022/06/07 11:13:38;;;;;;;3.08;2.05;;;;;;;;;;4985402;28;20031;-58
2022/06/07 11:16:09;;;;;;;3.63;2.28;;;;;;;;;;4988249;28;20553;-60
2022/06/07 11:18:36;;;;;;;3.22;2.50;;;;;;;;;;4973865;28;20077;-59
2022/06/07 11:21:02;;;;;;;3.80;2.20;;;;;;;;;;4981087;28;20022;-59
2022/06/07 11:23:32;;;;;;;3.63;2.28;;;;;;;;;;4978525;28;20557;-59
2022/06/07 11:26:06;;;;;;;5.10;2.70;;;;;;;;;;4977175;28;20114;-59
2022/06/07 11:28:41;;;;;;;5.32;2.75;;;;;;;;;;4976011;28;20116;-59
2022/06/07 11:31:16;;;;;;;6.57;3.70;;;;;;;;;;4992760;28;20050;-59
2022/06/07 11:33:51;;;;;;;7.78;3.40;;;;;;;;;;4992831;28;20037;-59
2022/06/07 11:36:23;;;;;;;13.27;3.22;;;;;;;;;;4989426;28;20022;-57
2022/06/07 11:38:55;;;;;;;5.43;1.70;;;;;;;;;;4989878;28;20026;-58
2022/06/07 11:41:40;;;;;;;6.40;1.63;;;;;;;;;;4989445;28;20034;-57
2022/06/07 11:44:12;;;;;;;5.00;0.88;;;;;;;;;;4981924;28;20042;-59
2022/06/07 11:46:57;;;;;;;6.50;1.05;;;;;;;;;;4981157;28;20030;-59
2022/06/07 11:49:23;;;;;;;1.70;1.15;;;;;;;;;;4979637;28;20030;-59
2022/06/07 11:51:53;;;;;;;1.10;0.57;;;;;;;;;;4992872;28;20033;-59
2022/06/07 11:54:21;;;;;;;2.17;0.57;;;;;;;;;;4988424;28;20297;-59
2022/06/07 11:56:50;;;;;;;1.77;0.40;;;;;;;;;;4972962;28;20033;-60
2022/06/07 11:59:19;;;;;;;2.35;0.50;;;;;;;;;;4989488;28;20026;-60
2022/06/07 12:02:08;;;;;;;1.60;0.80;;;;;;;;;;4992575;28;20045;-60
2022/06/07 12:04:36;;;;;;;4.00;0.98;;;;;;;;;;4987488;28;20031;-60
2022/06/07 12:07:08;;;;;;;1.98;1.20;;;;;;;;;;4973003;28;20038;-60
2022/06/07 12:09:35;;;;;;;3.25;1.25;;;;;;;;;;4977494;28;20044;-60
2022/06/07 12:12:17;;;;;;;4.53;1.40;;;;;;;;;;4976701;28;20118;-60
2022/06/07 12:14:44;;;;;;;4.32;1.40;;;;;;;;;;4972818;28;20026;-57
2022/06/07 12:17:24;;;;;;;3.60;1.38;;;;;;;;;;4988896;28;20499;-60
2022/06/07 12:19:51;;;;;;;3.38;1.95;;;;;;;;;;4991691;28;20073;-60
2022/06/07 12:22:19;;;;;;;3.47;1.98;;;;;;;;;;4992272;28;20377;-60
2022/06/07 12:24:59;;;;;;;2.30;1.70;;;;;;;;;;4992204;28;20023;-60
2022/06/07 12:27:44;;;;;;;3.22;2.20;;;;;;;;;;4972944;28;20066;-59
2022/06/07 12:30:21;;;;;;;3.17;1.60;;;;;;;;;;4972876;28;20031;-59
2022/06/07 12:32:50;;;;;;;3.30;1.60;;;;;;;;;;4978434;28;20592;-60
2022/06/07 12:35:16;;;;;;;3.63;1.85;;;;;;;;;;4974232;28;20054;-60
2022/06/07 12:37:45;;;;;;;2.00;1.67;;;;;;;;;;4972861;28;20033;-60
2022/06/07 12:40:23;;;;;;;1.80;1.15;;;;;;;;;;4973038;28;20262;-59
2022/06/07 12:42:49;;;;;;;1.85;1.02;;;;;;;;;;4973423;28;20491;-57
2022/06/07 12:45:23;;;;;;;2.45;1.00;;;;;;;;;;4973697;28;20062;-59
2022/06/07 12:47:57;;;;;;;1.73;0.88;;;;;;;;;;4973779;28;20033;-59
2022/06/07 12:50:28;;;;;;;1.50;1.13;;;;;;;;;;4972487;28;20042;-59
2022/06/07 12:52:54;;;;;;;1.45;1.20;;;;;;;;;;4972457;28;20025;-60
2022/06/07 12:55:24;;;;;;;3.35;1.50;;;;;;;;;;4972428;28;20030;-57
2022/06/07 12:57:56;;;;;;;1.90;0.93;;;;;;;;;;4991051;28;20479;-59
2022/06/07 13:00:23;;;;;;;4.38;1.00;;;;;;;;;;4991899;28;20113;-59
2022/06/07 13:02:54;;;;;;;1.77;0.90;;;;;;;;;;4990370;28;20510;-59
2022/06/07 13:05:22;;;;;;;1.17;1.05;;;;;;;;;;4972416;28;20027;-60
2022/06/07 13:07:53;;;;;;;2.08;1.00;;;;;;;;;;4989909;28;20054;-60
2022/06/07 13:10:26;;;;;;;1.58;1.48;;;;;;;;;;4991846;28;20026;-59
2022/06/07 13:12:53;;;;;;;1.83;1.20;;;;;;;;;;4990716;28;20050;-60
2022/06/07 13:15:20;;;;;;;1.73;1.00;;;;;;;;;;4975500;28;20053;-59
2022/06/07 13:18:04;;;;;;;2.33;0.73;;;;;;;;;;4984471;28;20388;-59
2022/06/07 13:20:41;;;;;;;5.47;1.02;;;;;;;;;;4972321;28;20499;-58
2022/06/07 13:23:28;;;;;;;0.90;0.70;;;;;;;;;;4972309;28;20019;-60
2022/06/07 13:25:56;;;;;;;7.47;1.15;;;;;;;;;;4983877;28;20030;-61
2022/06/07 13:28:23;;;;;;;1.10;1.00;;;;;;;;;;4991140;28;20122;-60
2022/06/07 13:30:54;;;;;;;3.00;0.85;;;;;;;;;;4984390;28;20034;-61
2022/06/07 13:33:28;;;;;;;3.55;1.10;;;;;;;;;;4976162;28;20026;-61
2022/06/07 13:36:00;;;;;;;1.40;1.10;;;;;;;;;;4974245;28;20038;-61
2022/06/07 13:38:36;;;;;;;1.17;1.05;;;;;;;;;;4981133;28;20085;-61
2022/06/07 13:41:05;;;;;;;0.82;0.80;;;;;;;;;;4980706;28;20125;-61
2022/06/07 13:43:32;;;;;;;1.27;1.17;;;;;;;;;;4975687;28;20147;-61
2022/06/07 13:46:03;;;;;;;1.23;1.00;;;;;;;;;;4990525;28;20396;-61
2022/06/07 13:54:20;;;;;;;1.23;1.13;;;;;;;;;;4975844;28;20066;-65
2022/06/07 13:56:47;;;;;;;3.13;1.10;;;;;;;;;;4981684;28;20027;-64
2022/06/07 13:59:15;;;;;;;1.70;1.33;;;;;;;;;;4994785;28;20491;-65
2022/06/07 14:01:44;;;;;;;1.10;1.00;;;;;;;;;;4994647;28;20030;-65
2022/06/07 14:04:17;;;;;;;1.98;1.55;;;;;;;;;;4993350;28;20050;-65
2022/06/07 14:06:43;;;;;;;1.40;1.13;;;;;;;;;;4994649;28;20049;-64
2022/06/07 14:09:21;;;;;;;2.80;0.90;;;;;;;;;;4985921;28;20074;-65
2022/06/07 14:11:51;;;;;;;1.67;1.45;;;;;;;;;;4989673;28;20117;-65
2022/06/07 14:14:18;;;;;;;1.98;1.20;;;;;;;;;;4993182;28;20026;-65
2022/06/07 14:16:55;;;;;;;2.10;1.08;;;;;;;;;;4985215;28;20026;-65
2022/06/07 14:19:29;;;;;;;1.65;0.90;;;;;;;;;;4991331;28;20125;-65
2022/06/07 14:21:56;;;;;;;1.63;1.20;;;;;;;;;;4986587;28;20372;-65
2022/06/07 14:24:23;;;;;;;2.25;1.70;;;;;;;;;;4994205;28;20502;-65
2022/06/07 14:26:50;;;;;;;1.48;1.20;;;;;;;;;;4993452;28;20026;-65
2022/06/07 14:29:16;;;;;;;1.98;0.93;;;;;;;;;;4994237;28;20053;-65
2022/06/07 14:31:43;;;;;;;1.42;0.93;;;;;;;;;;4992785;28;20030;-65
2022/06/07 14:34:21;;;;;;;1.20;1.10;;;;;;;;;;4992828;28;20026;-64
2022/06/07 14:36:48;;;;;;;1.40;1.30;;;;;;;;;;4994055;28;20030;-65
2022/06/07 14:39:18;;;;;;;1.55;1.45;;;;;;;;;;4993944;28;20022;-65
2022/06/07 14:41:44;;;;;;;1.77;1.38;;;;;;;;;;4993536;28;20161;-63
2022/06/07 14:44:11;;;;;;;1.33;1.20;;;;;;;;;;4993880;28;20093;-63
2022/06/07 14:46:37;;;;;;;5.32;1.33;;;;;;;;;;4993800;28;20042;-63
2022/06/07 14:49:06;;;;;;;1.73;1.63;;;;;;;;;;4992498;28;20026;-63
2022/06/07 14:51:37;;;;;;;2.47;1.17;;;;;;;;;;4993739;28;20490;-63
2022/06/07 14:54:05;;;;;;;2.95;1.77;;;;;;;;;;4993489;28;20027;-63
2022/06/07 14:56:33;;;;;;;2.38;1.30;;;;;;;;;;4993481;28;20080;-63
2022/06/07 14:58:59;;;;;;;3.08;1.58;;;;;;;;;;4993868;28;20402;-63
2022/06/07 15:01:30;;;;;;;1.23;1.10;;;;;;;;;;4992295;28;20036;-63
2022/06/07 15:03:56;;;;;;;2.08;1.00;;;;;;;;;;4993413;28;20022;-63
2022/06/07 15:06:32;;;;;;;2.70;1.33;;;;;;;;;;4993162;28;20113;-63
2022/06/07 15:08:58;;;;;;;3.03;1.38;;;;;;;;;;4993368;28;20034;-63
2022/06/07 15:11:31;;;;;;;1.88;1.13;;;;;;;;;;4993530;28;20030;-63
2022/06/07 15:13:57;;;;;;;3.40;1.70;;;;;;;;;;4993370;28;20029;-62
2022/06/07 15:16:24;;;;;;;2.70;1.40;;;;;;;;;;4993190;28;20026;-63
2022/06/07 15:18:51;;;;;;;2.78;1.85;;;;;;;;;;4993200;28;20093;-63
2022/06/07 15:21:18;;;;;;;2.05;1.30;;;;;;;;;;4993204;28;20038;-62
2022/06/07 15:23:44;;;;;;;2.70;1.60;;;;;;;;;;4993140;28;20030;-63